sensor_id;sensor_type;location;lat;lon;timestamp;P1;durP1;ratioP1;P2;durP2;ratioP2
18190;SDS011;47004;51.366;12.348;2023-04-10T00:01:30;45.13;;;22.80;;
18190;SDS011;47004;51.366;12.348;2023-04-10T00:03:34;48.70;;;24.40;;
18190;SDS011;47004;51.366;12.348;2023-04-10T00:05:36;41.33;;;23.00;;
18190;SDS011;47004;51.366;12.348;2023-04-10T00:07:38;47.30;;;24.20;;
18190;SDS011;47004;51.366;12.348;2023-04-10T00:09:42;43.60;;;23.30;;
18190;SDS011;47004;51.366;12.348;2023-04-10T00:11:44;42.20;;;23.67;;
18190;SDS011;47004;51.366;12.348;2023-04-10T00:13:46;41.13;;;22.00;;
18190;SDS011;47004;51.366;12.348;2023-04-10T00:15:48;44.70;;;22.93;;
18190;SDS011;47004;51.366;12.348;2023-04-10T00:17:50;45.33;;;23.13;;
18190;SDS011;47004;51.366;12.348;2023-04-10T00:19:54;41.93;;;21.90;;
18190;SDS011;47004;51.366;12.348;2023-04-10T00:21:58;42.07;;;22.50;;
18190;SDS011;47004;51.366;12.348;2023-04-10T00:24:00;44.30;;;23.23;;
18190;SDS011;47004;51.366;12.348;2023-04-10T00:26:03;45.77;;;23.90;;
18190;SDS011;47004;51.366;12.348;2023-04-10T00:28:05;44.83;;;23.60;;
18190;SDS011;47004;51.366;12.348;2023-04-10T00:30:07;42.50;;;23.70;;
18190;SDS011;47004;51.366;12.348;2023-04-10T00:32:10;47.17;;;24.73;;
18190;SDS011;47004;51.366;12.348;2023-04-10T00:34:11;46.07;;;25.37;;
18190;SDS011;47004;51.366;12.348;2023-04-10T00:36:14;49.70;;;26.17;;
18190;SDS011;47004;51.366;12.348;2023-04-10T00:38:16;44.07;;;24.73;;
18190;SDS011;47004;51.366;12.348;2023-04-10T00:40:18;46.57;;;26.07;;
18190;SDS011;47004;51.366;12.348;2023-04-10T00:42:22;45.23;;;24.63;;
18190;SDS011;47004;51.366;12.348;2023-04-10T00:44:24;46.17;;;24.97;;
18190;SDS011;47004;51.366;12.348;2023-04-10T00:46:26;44.90;;;23.97;;
18190;SDS011;47004;51.366;12.348;2023-04-10T00:48:28;44.20;;;23.10;;
18190;SDS011;47004;51.366;12.348;2023-04-10T00:50:30;44.27;;;22.63;;
18190;SDS011;47004;51.366;12.348;2023-04-10T00:52:32;41.27;;;23.00;;
18190;SDS011;47004;51.366;12.348;2023-04-10T00:54:34;41.27;;;21.83;;
18190;SDS011;47004;51.366;12.348;2023-04-10T00:56:36;44.03;;;22.10;;
18190;SDS011;47004;51.366;12.348;2023-04-10T00:58:40;39.23;;;22.40;;
18190;SDS011;47004;51.366;12.348;2023-04-10T01:00:42;43.37;;;21.57;;
18190;SDS011;47004;51.366;12.348;2023-04-10T01:02:44;44.57;;;22.63;;
18190;SDS011;47004;51.366;12.348;2023-04-10T01:04:45;41.40;;;22.20;;
18190;SDS011;47004;51.366;12.348;2023-04-10T01:06:51;41.63;;;21.87;;
18190;SDS011;47004;51.366;12.348;2023-04-10T01:08:59;38.30;;;20.67;;
18190;SDS011;47004;51.366;12.348;2023-04-10T01:11:07;42.07;;;21.37;;
18190;SDS011;47004;51.366;12.348;2023-04-10T01:13:15;39.93;;;21.27;;
18190;SDS011;47004;51.366;12.348;2023-04-10T01:15:24;40.43;;;20.40;;
18190;SDS011;47004;51.366;12.348;2023-04-10T01:17:30;40.27;;;21.13;;
18190;SDS011;47004;51.366;12.348;2023-04-10T01:19:42;39.83;;;20.17;;
18190;SDS011;47004;51.366;12.348;2023-04-10T01:22:03;36.67;;;19.57;;
18190;SDS011;47004;51.366;12.348;2023-04-10T01:26:40;38.20;;;20.00;;
18190;SDS011;47004;51.366;12.348;2023-04-10T01:28:56;35.80;;;19.50;;
18190;SDS011;47004;51.366;12.348;2023-04-10T01:31:01;36.93;;;19.33;;
18190;SDS011;47004;51.366;12.348;2023-04-10T01:33:04;38.33;;;19.37;;
18190;SDS011;47004;51.366;12.348;2023-04-10T01:35:12;35.53;;;19.00;;
18190;SDS011;47004;51.366;12.348;2023-04-10T01:37:18;37.83;;;19.17;;
18190;SDS011;47004;51.366;12.348;2023-04-10T01:39:22;37.13;;;19.13;;
18190;SDS011;47004;51.366;12.348;2023-04-10T01:41:27;36.07;;;18.97;;
18190;SDS011;47004;51.366;12.348;2023-04-10T01:43:30;38.67;;;19.40;;
18190;SDS011;47004;51.366;12.348;2023-04-10T01:45:36;35.23;;;19.90;;
18190;SDS011;47004;51.366;12.348;2023-04-10T01:47:41;39.20;;;19.23;;
18190;SDS011;47004;51.366;12.348;2023-04-10T01:49:44;37.03;;;19.43;;
18190;SDS011;47004;51.366;12.348;2023-04-10T01:51:47;37.83;;;19.80;;
18190;SDS011;47004;51.366;12.348;2023-04-10T01:53:50;36.33;;;19.20;;
18190;SDS011;47004;51.366;12.348;2023-04-10T01:55:52;35.93;;;18.93;;
18190;SDS011;47004;51.366;12.348;2023-04-10T01:57:54;35.47;;;19.10;;
18190;SDS011;47004;51.366;12.348;2023-04-10T01:59:56;38.10;;;19.60;;
18190;SDS011;47004;51.366;12.348;2023-04-10T02:02:00;36.13;;;18.87;;
18190;SDS011;47004;51.366;12.348;2023-04-10T02:04:03;37.63;;;19.73;;
18190;SDS011;47004;51.366;12.348;2023-04-10T02:06:08;35.97;;;19.97;;
18190;SDS011;47004;51.366;12.348;2023-04-10T02:08:17;38.33;;;19.63;;
18190;SDS011;47004;51.366;12.348;2023-04-10T02:10:24;36.03;;;20.00;;
18190;SDS011;47004;51.366;12.348;2023-04-10T02:12:33;38.63;;;19.63;;
18190;SDS011;47004;51.366;12.348;2023-04-10T02:14:40;36.87;;;20.63;;
18190;SDS011;47004;51.366;12.348;2023-04-10T02:16:45;43.27;;;20.90;;
18190;SDS011;47004;51.366;12.348;2023-04-10T02:18:49;37.13;;;19.93;;
18190;SDS011;47004;51.366;12.348;2023-04-10T02:20:53;38.60;;;20.47;;
18190;SDS011;47004;51.366;12.348;2023-04-10T02:22:55;40.70;;;20.77;;
18190;SDS011;47004;51.366;12.348;2023-04-10T02:25:02;40.03;;;21.27;;
18190;SDS011;47004;51.366;12.348;2023-04-10T02:27:05;38.07;;;20.77;;
18190;SDS011;47004;51.366;12.348;2023-04-10T02:29:07;42.53;;;21.47;;
18190;SDS011;47004;51.366;12.348;2023-04-10T02:31:09;39.97;;;21.50;;
18190;SDS011;47004;51.366;12.348;2023-04-10T02:33:11;39.03;;;20.93;;
18190;SDS011;47004;51.366;12.348;2023-04-10T02:35:14;40.53;;;20.93;;
18190;SDS011;47004;51.366;12.348;2023-04-10T02:37:16;37.33;;;20.63;;
18190;SDS011;47004;51.366;12.348;2023-04-10T02:39:18;40.87;;;20.97;;
18190;SDS011;47004;51.366;12.348;2023-04-10T02:41:20;40.10;;;20.23;;
18190;SDS011;47004;51.366;12.348;2023-04-10T02:43:23;38.57;;;20.50;;
18190;SDS011;47004;51.366;12.348;2023-04-10T02:45:25;36.37;;;19.67;;
18190;SDS011;47004;51.366;12.348;2023-04-10T02:47:27;35.87;;;19.17;;
18190;SDS011;47004;51.366;12.348;2023-04-10T02:49:29;35.63;;;18.33;;
18190;SDS011;47004;51.366;12.348;2023-04-10T02:51:34;39.00;;;19.07;;
18190;SDS011;47004;51.366;12.348;2023-04-10T02:53:36;37.07;;;19.43;;
18190;SDS011;47004;51.366;12.348;2023-04-10T02:55:38;35.70;;;19.13;;
18190;SDS011;47004;51.366;12.348;2023-04-10T02:57:40;34.53;;;17.77;;
18190;SDS011;47004;51.366;12.348;2023-04-10T02:59:42;36.80;;;18.73;;
18190;SDS011;47004;51.366;12.348;2023-04-10T03:01:44;41.47;;;20.60;;
18190;SDS011;47004;51.366;12.348;2023-04-10T03:03:47;39.20;;;20.93;;
18190;SDS011;47004;51.366;12.348;2023-04-10T03:05:49;37.80;;;19.73;;
18190;SDS011;47004;51.366;12.348;2023-04-10T03:07:52;38.67;;;20.27;;
18190;SDS011;47004;51.366;12.348;2023-04-10T03:09:54;41.13;;;20.20;;
18190;SDS011;47004;51.366;12.348;2023-04-10T03:11:56;36.83;;;19.13;;
18190;SDS011;47004;51.366;12.348;2023-04-10T03:13:58;35.03;;;19.40;;
18190;SDS011;47004;51.366;12.348;2023-04-10T03:16:00;41.33;;;21.17;;
18190;SDS011;47004;51.366;12.348;2023-04-10T03:18:02;37.23;;;19.83;;
18190;SDS011;47004;51.366;12.348;2023-04-10T03:20:05;36.87;;;19.07;;
18190;SDS011;47004;51.366;12.348;2023-04-10T03:22:07;35.17;;;19.07;;
18190;SDS011;47004;51.366;12.348;2023-04-10T03:24:11;38.57;;;19.93;;
18190;SDS011;47004;51.366;12.348;2023-04-10T03:26:13;36.27;;;18.83;;
18190;SDS011;47004;51.366;12.348;2023-04-10T03:28:15;38.33;;;19.67;;
18190;SDS011;47004;51.366;12.348;2023-04-10T03:30:17;36.20;;;18.33;;
18190;SDS011;47004;51.366;12.348;2023-04-10T03:32:19;36.07;;;18.60;;
18190;SDS011;47004;51.366;12.348;2023-04-10T03:34:21;34.40;;;17.87;;
18190;SDS011;47004;51.366;12.348;2023-04-10T03:36:23;37.37;;;18.43;;
18190;SDS011;47004;51.366;12.348;2023-04-10T03:38:26;33.07;;;17.20;;
18190;SDS011;47004;51.366;12.348;2023-04-10T03:40:29;34.57;;;17.57;;
18190;SDS011;47004;51.366;12.348;2023-04-10T03:42:33;35.70;;;17.77;;
18190;SDS011;47004;51.366;12.348;2023-04-10T03:44:35;31.60;;;16.53;;
18190;SDS011;47004;51.366;12.348;2023-04-10T03:46:37;32.27;;;16.50;;
18190;SDS011;47004;51.366;12.348;2023-04-10T03:48:39;33.13;;;16.33;;
18190;SDS011;47004;51.366;12.348;2023-04-10T03:50:41;33.07;;;17.00;;
18190;SDS011;47004;51.366;12.348;2023-04-10T03:52:43;30.90;;;16.03;;
18190;SDS011;47004;51.366;12.348;2023-04-10T03:54:45;32.77;;;16.40;;
18190;SDS011;47004;51.366;12.348;2023-04-10T03:56:48;29.93;;;16.00;;
18190;SDS011;47004;51.366;12.348;2023-04-10T03:58:50;34.17;;;16.83;;
18190;SDS011;47004;51.366;12.348;2023-04-10T04:00:52;32.97;;;15.47;;
18190;SDS011;47004;51.366;12.348;2023-04-10T04:02:54;32.07;;;15.57;;
18190;SDS011;47004;51.366;12.348;2023-04-10T04:04:57;33.50;;;16.10;;
18190;SDS011;47004;51.366;12.348;2023-04-10T04:06:59;32.73;;;16.27;;
18190;SDS011;47004;51.366;12.348;2023-04-10T04:09:01;31.27;;;15.50;;
18190;SDS011;47004;51.366;12.348;2023-04-10T04:11:03;30.90;;;15.40;;
18190;SDS011;47004;51.366;12.348;2023-04-10T04:13:07;28.70;;;14.33;;
18190;SDS011;47004;51.366;12.348;2023-04-10T04:15:09;30.43;;;14.90;;
18190;SDS011;47004;51.366;12.348;2023-04-10T04:17:11;31.97;;;15.60;;
18190;SDS011;47004;51.366;12.348;2023-04-10T04:19:13;28.23;;;14.30;;
18190;SDS011;47004;51.366;12.348;2023-04-10T04:21:15;28.57;;;14.37;;
18190;SDS011;47004;51.366;12.348;2023-04-10T04:23:17;30.53;;;14.37;;
18190;SDS011;47004;51.366;12.348;2023-04-10T04:25:19;28.33;;;14.73;;
18190;SDS011;47004;51.366;12.348;2023-04-10T04:27:21;28.43;;;14.73;;
18190;SDS011;47004;51.366;12.348;2023-04-10T04:29:25;28.73;;;14.43;;
18190;SDS011;47004;51.366;12.348;2023-04-10T04:31:27;27.17;;;15.07;;
18190;SDS011;47004;51.366;12.348;2023-04-10T04:33:31;26.80;;;14.23;;
18190;SDS011;47004;51.366;12.348;2023-04-10T04:35:33;27.47;;;14.60;;
18190;SDS011;47004;51.366;12.348;2023-04-10T04:37:35;28.57;;;14.50;;
18190;SDS011;47004;51.366;12.348;2023-04-10T04:39:37;30.37;;;15.43;;
18190;SDS011;47004;51.366;12.348;2023-04-10T04:41:39;31.67;;;17.03;;
18190;SDS011;47004;51.366;12.348;2023-04-10T04:43:41;32.67;;;16.77;;
18190;SDS011;47004;51.366;12.348;2023-04-10T04:45:44;33.50;;;17.50;;
18190;SDS011;47004;51.366;12.348;2023-04-10T04:47:46;32.27;;;15.47;;
18190;SDS011;47004;51.366;12.348;2023-04-10T04:49:48;30.67;;;16.17;;
18190;SDS011;47004;51.366;12.348;2023-04-10T04:51:50;32.73;;;16.80;;
18190;SDS011;47004;51.366;12.348;2023-04-10T04:53:52;30.87;;;15.87;;
18190;SDS011;47004;51.366;12.348;2023-04-10T04:55:54;28.50;;;15.23;;
18190;SDS011;47004;51.366;12.348;2023-04-10T04:57:56;31.73;;;15.70;;
18190;SDS011;47004;51.366;12.348;2023-04-10T05:00:01;30.00;;;16.13;;
18190;SDS011;47004;51.366;12.348;2023-04-10T05:02:05;32.37;;;17.20;;
18190;SDS011;47004;51.366;12.348;2023-04-10T05:04:07;31.53;;;16.17;;
18190;SDS011;47004;51.366;12.348;2023-04-10T05:06:08;33.43;;;16.97;;
18190;SDS011;47004;51.366;12.348;2023-04-10T05:08:13;33.00;;;16.17;;
18190;SDS011;47004;51.366;12.348;2023-04-10T05:10:15;35.33;;;16.50;;
18190;SDS011;47004;51.366;12.348;2023-04-10T05:12:17;27.87;;;14.97;;
18190;SDS011;47004;51.366;12.348;2023-04-10T05:14:19;31.00;;;15.30;;
18190;SDS011;47004;51.366;12.348;2023-04-10T05:16:21;29.53;;;14.87;;
18190;SDS011;47004;51.366;12.348;2023-04-10T05:18:25;31.07;;;15.37;;
18190;SDS011;47004;51.366;12.348;2023-04-10T05:20:28;26.20;;;14.43;;
18190;SDS011;47004;51.366;12.348;2023-04-10T05:22:30;28.40;;;14.03;;
18190;SDS011;47004;51.366;12.348;2023-04-10T05:24:32;27.60;;;15.20;;
18190;SDS011;47004;51.366;12.348;2023-04-10T05:26:34;27.87;;;14.53;;
18190;SDS011;47004;51.366;12.348;2023-04-10T05:28:36;27.40;;;14.80;;
18190;SDS011;47004;51.366;12.348;2023-04-10T05:30:38;30.00;;;15.60;;
18190;SDS011;47004;51.366;12.348;2023-04-10T05:32:40;29.67;;;15.00;;
18190;SDS011;47004;51.366;12.348;2023-04-10T05:34:44;30.07;;;14.70;;
18190;SDS011;47004;51.366;12.348;2023-04-10T05:36:46;31.87;;;16.00;;
18190;SDS011;47004;51.366;12.348;2023-04-10T05:38:48;30.63;;;14.50;;
18190;SDS011;47004;51.366;12.348;2023-04-10T05:40:49;30.77;;;15.03;;
18190;SDS011;47004;51.366;12.348;2023-04-10T05:42:51;28.97;;;14.77;;
18190;SDS011;47004;51.366;12.348;2023-04-10T05:44:53;30.23;;;15.07;;
18190;SDS011;47004;51.366;12.348;2023-04-10T05:46:55;29.80;;;15.03;;
18190;SDS011;47004;51.366;12.348;2023-04-10T05:48:57;30.90;;;15.33;;
18190;SDS011;47004;51.366;12.348;2023-04-10T05:51:01;28.57;;;14.50;;
18190;SDS011;47004;51.366;12.348;2023-04-10T05:53:03;28.73;;;14.43;;
18190;SDS011;47004;51.366;12.348;2023-04-10T05:55:05;32.60;;;16.03;;
18190;SDS011;47004;51.366;12.348;2023-04-10T05:57:08;31.53;;;15.27;;
18190;SDS011;47004;51.366;12.348;2023-04-10T05:59:10;28.33;;;15.33;;
18190;SDS011;47004;51.366;12.348;2023-04-10T06:01:12;32.27;;;15.73;;
18190;SDS011;47004;51.366;12.348;2023-04-10T06:03:14;33.37;;;16.07;;
18190;SDS011;47004;51.366;12.348;2023-04-10T06:05:16;31.43;;;16.17;;
18190;SDS011;47004;51.366;12.348;2023-04-10T06:07:20;31.40;;;15.63;;
18190;SDS011;47004;51.366;12.348;2023-04-10T06:09:21;29.23;;;14.97;;
18190;SDS011;47004;51.366;12.348;2023-04-10T06:11:23;32.07;;;16.03;;
18190;SDS011;47004;51.366;12.348;2023-04-10T06:13:26;32.13;;;16.17;;
18190;SDS011;47004;51.366;12.348;2023-04-10T06:15:28;31.17;;;15.50;;
18190;SDS011;47004;51.366;12.348;2023-04-10T06:17:30;28.50;;;14.43;;
18190;SDS011;47004;51.366;12.348;2023-04-10T06:19:32;32.90;;;15.87;;
18190;SDS011;47004;51.366;12.348;2023-04-10T06:21:34;32.50;;;16.10;;
18190;SDS011;47004;51.366;12.348;2023-04-10T06:23:37;35.30;;;17.53;;
18190;SDS011;47004;51.366;12.348;2023-04-10T06:25:39;34.57;;;17.20;;
18190;SDS011;47004;51.366;12.348;2023-04-10T06:27:41;33.37;;;16.47;;
18190;SDS011;47004;51.366;12.348;2023-04-10T06:29:43;32.03;;;15.97;;
18190;SDS011;47004;51.366;12.348;2023-04-10T06:31:45;32.73;;;16.63;;
18190;SDS011;47004;51.366;12.348;2023-04-10T06:33:47;34.23;;;17.63;;
18190;SDS011;47004;51.366;12.348;2023-04-10T06:35:49;32.57;;;16.67;;
18190;SDS011;47004;51.366;12.348;2023-04-10T06:37:51;32.87;;;16.60;;
18190;SDS011;47004;51.366;12.348;2023-04-10T06:40:00;33.33;;;16.97;;
18190;SDS011;47004;51.366;12.348;2023-04-10T06:42:03;32.70;;;16.40;;
18190;SDS011;47004;51.366;12.348;2023-04-10T06:44:05;31.63;;;16.37;;
18190;SDS011;47004;51.366;12.348;2023-04-10T06:46:07;34.23;;;17.63;;
18190;SDS011;47004;51.366;12.348;2023-04-10T06:48:09;33.33;;;17.53;;
18190;SDS011;47004;51.366;12.348;2023-04-10T06:50:11;30.73;;;16.73;;
18190;SDS011;47004;51.366;12.348;2023-04-10T06:52:14;33.10;;;17.20;;
18190;SDS011;47004;51.366;12.348;2023-04-10T06:54:15;30.93;;;16.83;;
18190;SDS011;47004;51.366;12.348;2023-04-10T06:56:21;30.60;;;16.20;;
18190;SDS011;47004;51.366;12.348;2023-04-10T06:58:22;32.23;;;15.83;;
18190;SDS011;47004;51.366;12.348;2023-04-10T07:00:24;29.70;;;16.07;;
18190;SDS011;47004;51.366;12.348;2023-04-10T07:02:26;30.87;;;16.20;;
18190;SDS011;47004;51.366;12.348;2023-04-10T07:04:28;33.97;;;17.10;;
18190;SDS011;47004;51.366;12.348;2023-04-10T07:06:31;33.50;;;16.57;;
18190;SDS011;47004;51.366;12.348;2023-04-10T07:08:33;37.53;;;17.73;;
18190;SDS011;47004;51.366;12.348;2023-04-10T07:10:35;37.30;;;18.37;;
18190;SDS011;47004;51.366;12.348;2023-04-10T07:12:38;34.73;;;17.97;;
18190;SDS011;47004;51.366;12.348;2023-04-10T07:14:40;34.37;;;17.07;;
18190;SDS011;47004;51.366;12.348;2023-04-10T07:16:42;34.93;;;17.50;;
18190;SDS011;47004;51.366;12.348;2023-04-10T07:18:44;34.50;;;17.10;;
18190;SDS011;47004;51.366;12.348;2023-04-10T07:20:46;34.77;;;16.60;;
18190;SDS011;47004;51.366;12.348;2023-04-10T07:22:49;32.70;;;16.83;;
18190;SDS011;47004;51.366;12.348;2023-04-10T07:24:51;32.67;;;16.87;;
18190;SDS011;47004;51.366;12.348;2023-04-10T07:26:52;33.33;;;17.03;;
18190;SDS011;47004;51.366;12.348;2023-04-10T07:28:58;42.60;;;20.83;;
18190;SDS011;47004;51.366;12.348;2023-04-10T07:31:00;38.13;;;19.20;;
18190;SDS011;47004;51.366;12.348;2023-04-10T07:33:02;33.73;;;17.27;;
18190;SDS011;47004;51.366;12.348;2023-04-10T07:35:05;33.00;;;17.00;;
18190;SDS011;47004;51.366;12.348;2023-04-10T07:37:07;32.50;;;16.73;;
18190;SDS011;47004;51.366;12.348;2023-04-10T07:39:09;32.60;;;16.87;;
18190;SDS011;47004;51.366;12.348;2023-04-10T07:41:11;31.50;;;16.40;;
18190;SDS011;47004;51.366;12.348;2023-04-10T07:43:13;31.73;;;16.33;;
18190;SDS011;47004;51.366;12.348;2023-04-10T07:45:16;30.40;;;17.00;;
18190;SDS011;47004;51.366;12.348;2023-04-10T07:47:22;33.17;;;16.80;;
18190;SDS011;47004;51.366;12.348;2023-04-10T07:49:23;33.67;;;17.13;;
18190;SDS011;47004;51.366;12.348;2023-04-10T07:51:26;31.00;;;17.33;;
18190;SDS011;47004;51.366;12.348;2023-04-10T07:53:28;32.70;;;16.73;;
18190;SDS011;47004;51.366;12.348;2023-04-10T07:55:31;28.43;;;16.13;;
18190;SDS011;47004;51.366;12.348;2023-04-10T07:57:32;31.83;;;16.67;;
18190;SDS011;47004;51.366;12.348;2023-04-10T07:59:35;27.03;;;14.73;;
18190;SDS011;47004;51.366;12.348;2023-04-10T08:01:39;32.07;;;17.33;;
18190;SDS011;47004;51.366;12.348;2023-04-10T08:03:41;34.30;;;17.23;;
18190;SDS011;47004;51.366;12.348;2023-04-10T08:05:44;31.40;;;16.97;;
18190;SDS011;47004;51.366;12.348;2023-04-10T08:07:46;31.43;;;16.80;;
18190;SDS011;47004;51.366;12.348;2023-04-10T08:09:48;28.73;;;15.57;;
18190;SDS011;47004;51.366;12.348;2023-04-10T08:11:50;31.77;;;16.73;;
18190;SDS011;47004;51.366;12.348;2023-04-10T08:13:52;29.23;;;15.23;;
18190;SDS011;47004;51.366;12.348;2023-04-10T08:15:54;30.70;;;15.83;;
18190;SDS011;47004;51.366;12.348;2023-04-10T08:17:58;28.27;;;15.33;;
18190;SDS011;47004;51.366;12.348;2023-04-10T08:20:00;28.20;;;15.03;;
18190;SDS011;47004;51.366;12.348;2023-04-10T08:22:01;26.07;;;14.43;;
18190;SDS011;47004;51.366;12.348;2023-04-10T08:24:03;25.23;;;13.83;;
18190;SDS011;47004;51.366;12.348;2023-04-10T08:26:06;28.30;;;15.10;;
18190;SDS011;47004;51.366;12.348;2023-04-10T08:28:08;25.83;;;14.80;;
18190;SDS011;47004;51.366;12.348;2023-04-10T08:30:10;27.70;;;15.00;;
18190;SDS011;47004;51.366;12.348;2023-04-10T08:32:12;26.63;;;14.13;;
18190;SDS011;47004;51.366;12.348;2023-04-10T08:34:15;25.30;;;14.57;;
18190;SDS011;47004;51.366;12.348;2023-04-10T08:36:17;25.77;;;14.30;;
18190;SDS011;47004;51.366;12.348;2023-04-10T08:38:19;25.20;;;13.13;;
18190;SDS011;47004;51.366;12.348;2023-04-10T08:40:24;25.40;;;13.53;;
18190;SDS011;47004;51.366;12.348;2023-04-10T08:42:26;25.43;;;13.83;;
18190;SDS011;47004;51.366;12.348;2023-04-10T08:44:28;27.57;;;14.73;;
18190;SDS011;47004;51.366;12.348;2023-04-10T08:46:30;25.80;;;14.30;;
18190;SDS011;47004;51.366;12.348;2023-04-10T08:48:37;23.90;;;13.40;;
18190;SDS011;47004;51.366;12.348;2023-04-10T08:50:42;28.40;;;15.03;;
18190;SDS011;47004;51.366;12.348;2023-04-10T08:52:46;24.13;;;13.73;;
18190;SDS011;47004;51.366;12.348;2023-04-10T08:54:53;24.97;;;14.00;;
18190;SDS011;47004;51.366;12.348;2023-04-10T08:56:56;27.87;;;15.17;;
18190;SDS011;47004;51.366;12.348;2023-04-10T08:59:00;25.93;;;14.43;;
18190;SDS011;47004;51.366;12.348;2023-04-10T09:01:03;24.60;;;13.87;;
18190;SDS011;47004;51.366;12.348;2023-04-10T09:03:07;26.10;;;14.23;;
18190;SDS011;47004;51.366;12.348;2023-04-10T09:05:10;25.33;;;13.70;;
18190;SDS011;47004;51.366;12.348;2023-04-10T09:07:14;24.23;;;13.67;;
18190;SDS011;47004;51.366;12.348;2023-04-10T09:09:18;24.10;;;13.00;;
18190;SDS011;47004;51.366;12.348;2023-04-10T09:11:20;21.97;;;12.33;;
18190;SDS011;47004;51.366;12.348;2023-04-10T09:13:34;24.37;;;13.67;;
18190;SDS011;47004;51.366;12.348;2023-04-10T09:15:56;22.03;;;13.20;;
18190;SDS011;47004;51.366;12.348;2023-04-10T09:17:59;34.53;;;16.67;;
18190;SDS011;47004;51.366;12.348;2023-04-10T09:20:02;35.93;;;16.13;;
18190;SDS011;47004;51.366;12.348;2023-04-10T09:22:29;30.73;;;14.93;;
18190;SDS011;47004;51.366;12.348;2023-04-10T09:24:34;22.70;;;12.47;;
18190;SDS011;47004;51.366;12.348;2023-04-10T09:26:37;22.10;;;12.27;;
18190;SDS011;47004;51.366;12.348;2023-04-10T09:28:43;20.70;;;12.27;;
18190;SDS011;47004;51.366;12.348;2023-04-10T09:31:00;22.07;;;12.43;;
18190;SDS011;47004;51.366;12.348;2023-04-10T09:33:01;19.70;;;11.43;;
18190;SDS011;47004;51.366;12.348;2023-04-10T09:35:04;18.63;;;10.90;;
18190;SDS011;47004;51.366;12.348;2023-04-10T09:37:07;19.10;;;11.23;;
18190;SDS011;47004;51.366;12.348;2023-04-10T09:39:11;18.00;;;11.07;;
18190;SDS011;47004;51.366;12.348;2023-04-10T09:41:13;19.00;;;10.57;;
18190;SDS011;47004;51.366;12.348;2023-04-10T09:43:18;16.00;;;9.40;;
18190;SDS011;47004;51.366;12.348;2023-04-10T09:45:25;18.03;;;10.40;;
18190;SDS011;47004;51.366;12.348;2023-04-10T09:47:27;18.27;;;10.40;;
18190;SDS011;47004;51.366;12.348;2023-04-10T09:49:31;18.23;;;9.53;;
18190;SDS011;47004;51.366;12.348;2023-04-10T09:51:45;16.33;;;9.70;;
18190;SDS011;47004;51.366;12.348;2023-04-10T09:53:48;15.23;;;8.67;;
18190;SDS011;47004;51.366;12.348;2023-04-10T09:55:51;15.73;;;8.63;;
18190;SDS011;47004;51.366;12.348;2023-04-10T09:57:55;15.93;;;8.20;;
18190;SDS011;47004;51.366;12.348;2023-04-10T09:59:59;13.60;;;7.80;;
18190;SDS011;47004;51.366;12.348;2023-04-10T10:02:03;14.33;;;9.07;;
18190;SDS011;47004;51.366;12.348;2023-04-10T10:04:06;15.20;;;8.90;;
18190;SDS011;47004;51.366;12.348;2023-04-10T10:06:09;13.23;;;8.33;;
18190;SDS011;47004;51.366;12.348;2023-04-10T10:08:13;13.40;;;8.07;;
18190;SDS011;47004;51.366;12.348;2023-04-10T10:10:16;13.47;;;7.43;;
18190;SDS011;47004;51.366;12.348;2023-04-10T10:12:20;12.93;;;8.13;;
18190;SDS011;47004;51.366;12.348;2023-04-10T10:14:24;12.83;;;7.97;;
18190;SDS011;47004;51.366;12.348;2023-04-10T10:16:31;12.47;;;7.97;;
18190;SDS011;47004;51.366;12.348;2023-04-10T10:18:38;15.17;;;8.57;;
18190;SDS011;47004;51.366;12.348;2023-04-10T10:20:45;13.40;;;8.30;;
18190;SDS011;47004;51.366;12.348;2023-04-10T10:22:47;13.40;;;8.10;;
18190;SDS011;47004;51.366;12.348;2023-04-10T10:24:51;13.10;;;7.50;;
18190;SDS011;47004;51.366;12.348;2023-04-10T10:26:55;12.50;;;8.27;;
18190;SDS011;47004;51.366;12.348;2023-04-10T10:29:05;13.37;;;8.07;;
18190;SDS011;47004;51.366;12.348;2023-04-10T10:31:09;12.87;;;8.37;;
18190;SDS011;47004;51.366;12.348;2023-04-10T10:33:11;13.27;;;7.90;;
18190;SDS011;47004;51.366;12.348;2023-04-10T10:35:14;12.00;;;7.37;;
18190;SDS011;47004;51.366;12.348;2023-04-10T10:37:18;13.37;;;8.20;;
18190;SDS011;47004;51.366;12.348;2023-04-10T10:39:23;12.83;;;7.30;;
18190;SDS011;47004;51.366;12.348;2023-04-10T10:41:35;12.43;;;7.17;;
18190;SDS011;47004;51.366;12.348;2023-04-10T10:43:44;10.90;;;6.93;;
18190;SDS011;47004;51.366;12.348;2023-04-10T10:45:55;12.03;;;7.20;;
18190;SDS011;47004;51.366;12.348;2023-04-10T10:48:01;10.60;;;6.83;;
18190;SDS011;47004;51.366;12.348;2023-04-10T10:50:03;10.57;;;6.70;;
18190;SDS011;47004;51.366;12.348;2023-04-10T10:52:08;11.23;;;7.00;;
18190;SDS011;47004;51.366;12.348;2023-04-10T10:54:29;10.00;;;6.30;;
18190;SDS011;47004;51.366;12.348;2023-04-10T10:56:32;9.90;;;6.43;;
18190;SDS011;47004;51.366;12.348;2023-04-10T10:58:45;9.53;;;6.30;;
18190;SDS011;47004;51.366;12.348;2023-04-10T11:01:05;12.80;;;7.20;;
18190;SDS011;47004;51.366;12.348;2023-04-10T11:03:26;13.40;;;7.90;;
18190;SDS011;47004;51.366;12.348;2023-04-10T11:08:08;10.60;;;7.17;;
18190;SDS011;47004;51.366;12.348;2023-04-10T11:10:10;12.33;;;7.30;;
18190;SDS011;47004;51.366;12.348;2023-04-10T11:12:12;13.33;;;7.70;;
18190;SDS011;47004;51.366;12.348;2023-04-10T11:14:17;12.97;;;7.97;;
18190;SDS011;47004;51.366;12.348;2023-04-10T11:16:22;12.57;;;7.57;;
18190;SDS011;47004;51.366;12.348;2023-04-10T11:19:01;14.00;;;8.60;;
18190;SDS011;47004;51.366;12.348;2023-04-10T11:21:07;12.73;;;8.33;;
18190;SDS011;47004;51.366;12.348;2023-04-10T11:23:10;12.00;;;7.53;;
18190;SDS011;47004;51.366;12.348;2023-04-10T11:25:13;11.63;;;7.60;;
18190;SDS011;47004;51.366;12.348;2023-04-10T11:29:43;12.00;;;7.97;;
18190;SDS011;47004;51.366;12.348;2023-04-10T11:31:53;11.93;;;6.63;;
18190;SDS011;47004;51.366;12.348;2023-04-10T11:33:59;10.17;;;6.87;;
18190;SDS011;47004;51.366;12.348;2023-04-10T11:36:02;12.37;;;6.93;;
18190;SDS011;47004;51.366;12.348;2023-04-10T11:38:12;11.13;;;6.77;;
18190;SDS011;47004;51.366;12.348;2023-04-10T11:40:15;10.33;;;6.43;;
18190;SDS011;47004;51.366;12.348;2023-04-10T11:42:19;9.67;;;6.53;;
18190;SDS011;47004;51.366;12.348;2023-04-10T11:44:26;11.03;;;6.60;;
18190;SDS011;47004;51.366;12.348;2023-04-10T11:46:30;10.97;;;6.50;;
18190;SDS011;47004;51.366;12.348;2023-04-10T11:48:37;9.77;;;6.27;;
18190;SDS011;47004;51.366;12.348;2023-04-10T11:50:39;8.43;;;5.60;;
18190;SDS011;47004;51.366;12.348;2023-04-10T11:52:41;9.40;;;5.70;;
18190;SDS011;47004;51.366;12.348;2023-04-10T11:54:47;8.30;;;5.80;;
18190;SDS011;47004;51.366;12.348;2023-04-10T11:56:56;7.13;;;5.20;;
18190;SDS011;47004;51.366;12.348;2023-04-10T11:59:00;10.67;;;6.00;;
18190;SDS011;47004;51.366;12.348;2023-04-10T12:01:06;9.17;;;6.00;;
18190;SDS011;47004;51.366;12.348;2023-04-10T12:03:13;8.87;;;5.63;;